Time;durP1;ratioP1;P1;durP2;ratioP2;P2;SDS_P1;SDS_P2;PMS_P1;PMS_P2;Temp;Humidity;BMP_temperature;BMP_pressure;BME280_temperature;BME280_humidity;BME280_pressure;Samples;Min_cycle;Max_cycle;Signal;HPM_P1;HPM_P2
2022/01/06 00:00:00;;;;;;;0.25;0.25;;;3.60;99.90;;;;;;5053439;28;20091;-86
2022/01/06 00:02:26;;;;;;;0.32;0.30;;;3.60;99.90;;;;;;5052464;28;20041;-86
2022/01/06 00:04:52;;;;;;;0.00;0.00;;;3.60;99.90;;;;;;5052752;28;20048;-86
2022/01/06 00:07:17;;;;;;;0.00;0.00;;;3.60;99.90;;;;;;5053049;28;20064;-86
2022/01/06 00:09:43;;;;;;;0.00;0.00;;;3.50;99.90;;;;;;5036049;28;20056;-86
2022/01/06 00:12:13;;;;;;;0.00;0.00;;;3.50;99.90;;;;;;5035952;28;20053;-86
2022/01/06 00:14:59;;;;;;;0.00;0.00;;;3.50;99.90;;;;;;5039004;28;20396;-86
2022/01/06 00:25:38;;;;;;;1.25;0.52;;;3.60;99.90;;;;;;5055744;28;20056;-86
2022/01/06 00:28:03;;;;;;;0.00;0.00;;;3.60;99.90;;;;;;5055219;28;20127;-86
2022/01/06 00:30:29;;;;;;;0.00;0.00;;;3.60;99.90;;;;;;5038713;28;20045;-86
2022/01/06 00:32:55;;;;;;;0.00;0.00;;;3.60;99.90;;;;;;5057971;28;20036;-86
2022/01/06 00:35:21;;;;;;;0.00;0.00;;;3.50;99.90;;;;;;5040419;28;20097;-86
2022/01/06 00:37:46;;;;;;;0.00;0.00;;;3.40;99.90;;;;;;5060737;28;20090;-86
2022/01/06 00:40:12;;;;;;;0.45;0.45;;;3.40;99.90;;;;;;5044856;28;20048;-85
2022/01/06 00:42:39;;;;;;;0.13;0.00;;;3.40;99.90;;;;;;5043545;28;20036;-86
2022/01/06 00:45:05;;;;;;;0.00;0.00;;;3.40;99.90;;;;;;5043447;28;20055;-86
2022/01/06 00:47:31;;;;;;;0.00;0.00;;;3.50;99.90;;;;;;5058919;28;20493;-86
2022/01/06 00:49:56;;;;;;;0.00;0.00;;;3.40;99.90;;;;;;5042328;28;20044;-86
2022/01/06 00:52:22;;;;;;;0.00;0.00;;;3.50;99.90;;;;;;5058534;28;20479;-86
2022/01/06 00:54:48;;;;;;;0.00;0.00;;;3.60;99.90;;;;;;5042999;28;20048;-86
2022/01/06 00:57:13;;;;;;;0.00;0.00;;;3.50;99.90;;;;;;5059700;28;20044;-86
2022/01/06 00:59:39;;;;;;;0.00;0.00;;;3.50;99.90;;;;;;5043205;28;20130;-86
2022/01/06 01:02:05;;;;;;;0.45;0.32;;;3.50;99.90;;;;;;5059834;28;20036;-86
2022/01/06 01:04:30;;;;;;;0.00;0.00;;;3.40;99.90;;;;;;5059959;28;20430;-85
2022/01/06 01:06:56;;;;;;;0.00;0.00;;;3.40;99.90;;;;;;5043358;28;20094;-86
2022/01/06 01:09:22;;;;;;;0.00;0.00;;;3.30;99.90;;;;;;5061048;28;20049;-86
2022/01/06 01:11:47;;;;;;;0.00;0.00;;;3.30;99.90;;;;;;5043962;28;20131;-86
2022/01/06 01:14:27;;;;;;;0.00;0.00;;;3.30;99.90;;;;;;5042912;28;20055;-86
2022/01/06 01:16:56;;;;;;;0.10;0.10;;;3.30;99.90;;;;;;5059413;28;20051;-87
2022/01/06 01:19:22;;;;;;;1.77;0.90;;;3.20;99.90;;;;;;5041501;28;20132;-87
2022/01/06 01:21:48;;;;;;;0.00;0.00;;;3.20;99.90;;;;;;5057954;28;20093;-87
2022/01/06 01:24:14;;;;;;;0.00;0.00;;;3.80;99.90;;;;;;5058472;28;20143;-87
2022/01/06 01:26:40;;;;;;;0.00;0.00;;;3.20;99.90;;;;;;5059977;28;20084;-86
2022/01/06 01:29:13;;;;;;;0.00;0.00;;;3.10;99.90;;;;;;5059340;28;20060;-86
2022/01/06 01:31:44;;;;;;;0.00;0.00;;;3.10;99.90;;;;;;5060143;28;20040;-86
2022/01/06 01:34:10;;;;;;;0.00;0.00;;;3.10;99.90;;;;;;5042722;28;20053;-86
2022/01/06 01:36:36;;;;;;;11.50;0.20;;;3.00;99.90;;;;;;5057959;28;20052;-86
2022/01/06 01:39:02;;;;;;;0.17;0.17;;;3.00;99.90;;;;;;5040696;28;20060;-86
2022/01/06 01:41:29;;;;;;;0.00;0.00;;;3.00;99.90;;;;;;5041794;28;20048;-86
2022/01/06 01:43:55;;;;;;;0.17;0.03;;;3.00;99.90;;;;;;5057596;28;20098;-86
2022/01/06 01:46:28;;;;;;;0.00;0.00;;;3.00;99.90;;;;;;5057473;28;20055;-87
2022/01/06 01:51:40;;;;;;;0.00;0.00;;;2.90;99.90;;;;;;5058319;28;20384;-86
2022/01/06 01:54:06;;;;;;;0.00;0.00;;;2.90;99.90;;;;;;5041675;28;20049;-86
2022/01/06 01:56:32;;;;;;;0.00;0.00;;;2.90;99.90;;;;;;5041745;28;20048;-86
2022/01/06 01:58:58;;;;;;;0.52;0.52;;;2.90;99.90;;;;;;5058184;28;20156;-86
2022/01/06 02:01:24;;;;;;;0.10;0.10;;;2.80;99.90;;;;;;5058959;28;20448;-86
2022/01/06 02:03:49;;;;;;;0.00;0.00;;;2.80;99.90;;;;;;5042165;28;20052;-86
2022/01/06 02:06:15;;;;;;;0.00;0.00;;;2.80;99.90;;;;;;5042021;28;20123;-86
2022/01/06 02:08:41;;;;;;;0.00;0.00;;;2.70;99.90;;;;;;5059338;28;20379;-86
2022/01/06 02:11:06;;;;;;;0.20;0.20;;;2.70;99.90;;;;;;5041585;28;20048;-86
2022/01/06 02:13:32;;;;;;;0.00;0.00;;;2.70;99.90;;;;;;5042090;28;20040;-86
2022/01/06 02:16:00;;;;;;;0.00;0.00;;;2.70;99.90;;;;;;5041113;28;20137;-86
2022/01/06 02:18:28;;;;;;;0.28;0.28;;;2.70;99.90;;;;;;5040314;28;20052;-86
2022/01/06 02:20:54;;;;;;;0.00;0.00;;;2.70;99.90;;;;;;5040317;28;20049;-86
2022/01/06 02:23:21;;;;;;;0.00;0.00;;;2.70;99.90;;;;;;5040310;28;20094;-86
2022/01/06 02:25:49;;;;;;;0.00;0.00;;;2.70;99.90;;;;;;5039955;28;20093;-86
2022/01/06 02:28:17;;;;;;;0.00;0.00;;;2.80;99.90;;;;;;5040790;28;20052;-86
2022/01/06 02:30:46;;;;;;;0.00;0.00;;;2.70;99.90;;;;;;5057001;28;20036;-86
2022/01/06 02:33:12;;;;;;;0.10;0.10;;;2.70;99.90;;;;;;5056650;28;20049;-86
2022/01/06 02:35:38;;;;;;;0.00;0.00;;;2.70;99.90;;;;;;5041042;28;20127;-86
2022/01/06 02:38:04;;;;;;;0.00;0.00;;;2.70;99.90;;;;;;5040478;28;20468;-86
2022/01/06 02:40:29;;;;;;;0.00;0.00;;;2.70;99.90;;;;;;5056324;28;20084;-86
2022/01/06 02:42:59;;;;;;;0.00;0.00;;;2.70;99.90;;;;;;5040783;28;20044;-86
2022/01/06 02:45:27;;;;;;;1.98;0.52;;;2.60;99.90;;;;;;5056167;28;20045;-86
2022/01/06 02:47:54;;;;;;;1.15;0.55;;;2.60;99.90;;;;;;5056330;28;20132;-86
2022/01/06 02:50:21;;;;;;;0.00;0.00;;;2.60;99.90;;;;;;5039270;28;20569;-87
2022/01/06 02:52:46;;;;;;;0.13;0.13;;;2.70;99.90;;;;;;5056054;28;20486;-86
2022/01/06 02:55:14;;;;;;;0.00;0.00;;;2.90;99.90;;;;;;5039416;28;20048;-86
2022/01/06 02:57:41;;;;;;;0.00;0.00;;;2.70;99.90;;;;;;5039317;28;20048;-86
2022/01/06 03:00:17;;;;;;;0.00;0.00;;;2.70;99.90;;;;;;5039798;28;20056;-86
2022/01/06 03:02:46;;;;;;;0.00;0.00;;;2.70;99.90;;;;;;5041226;28;20124;-86
2022/01/06 03:05:15;;;;;;;0.32;0.32;;;2.80;99.90;;;;;;5057377;28;20127;-86
2022/01/06 03:07:41;;;;;;;0.00;0.00;;;2.90;99.90;;;;;;5056203;28;20040;-86
2022/01/06 03:10:10;;;;;;;0.38;0.30;;;2.80;99.90;;;;;;5056123;28;20041;-86
2022/01/06 03:12:41;;;;;;;0.00;0.00;;;2.80;99.90;;;;;;5039711;28;20048;-86
2022/01/06 03:15:17;;;;;;;0.00;0.00;;;2.70;99.90;;;;;;5039400;28;20062;-86
2022/01/06 03:17:58;;;;;;;0.00;0.00;;;2.70;99.90;;;;;;5055827;28;20060;-86
2022/01/06 03:20:26;;;;;;;0.45;0.45;;;2.80;99.90;;;;;;5039786;28;20466;-86
2022/01/06 03:22:53;;;;;;;0.00;0.00;;;2.60;99.90;;;;;;5041018;28;20107;-86
2022/01/06 03:25:19;;;;;;;0.00;0.00;;;2.60;99.90;;;;;;5040990;28;20087;-86
2022/01/06 03:27:45;;;;;;;0.00;0.00;;;2.60;99.90;;;;;;5057222;28;20052;-86
2022/01/06 03:30:15;;;;;;;0.00;0.00;;;3.50;99.90;;;;;;5058183;28;20048;-86
2022/01/06 03:32:41;;;;;;;0.75;0.75;;;2.60;99.90;;;;;;5057166;28;20055;-87
2022/01/06 03:35:09;;;;;;;20.52;2.28;;;2.60;99.90;;;;;;5057604;28;20044;-86
2022/01/06 03:37:35;;;;;;;0.00;0.00;;;2.60;99.90;;;;;;5040668;28;20111;-86
2022/01/06 03:40:04;;;;;;;0.00;0.00;;;2.60;99.90;;;;;;5040923;28;20050;-86
2022/01/06 03:42:31;;;;;;;0.00;0.00;;;2.60;99.90;;;;;;5040750;28;20052;-87
2022/01/06 03:44:58;;;;;;;0.00;0.00;;;2.60;99.90;;;;;;5040857;28;20057;-86
2022/01/06 03:47:23;;;;;;;0.00;0.00;;;2.50;99.90;;;;;;5040637;28;20469;-86
2022/01/06 03:49:49;;;;;;;0.00;0.00;;;2.50;99.90;;;;;;5040281;28;20121;-87
2022/01/06 03:52:15;;;;;;;0.00;0.00;;;2.50;99.90;;;;;;5039204;28;20090;-87
2022/01/06 03:54:40;;;;;;;0.00;0.00;;;2.40;99.90;;;;;;5039142;28;20044;-86
2022/01/06 03:57:06;;;;;;;0.00;0.00;;;2.30;99.90;;;;;;5039150;28;20087;-87
2022/01/06 03:59:32;;;;;;;0.05;0.05;;;2.30;99.90;;;;;;5038915;28;20048;-86
2022/01/06 04:01:57;;;;;;;0.00;0.00;;;2.20;99.90;;;;;;5038646;28;20047;-87
2022/01/06 04:04:23;;;;;;;1.55;0.55;;;2.20;99.90;;;;;;5055555;28;20051;-87
2022/01/06 04:06:49;;;;;;;1.88;0.85;;;2.20;99.90;;;;;;5055909;28;20041;-87
2022/01/06 04:09:15;;;;;;;0.00;0.00;;;2.10;99.90;;;;;;5057659;28;20139;-88
2022/01/06 04:11:41;;;;;;;0.00;0.00;;;2.00;99.90;;;;;;5041410;28;20045;-86
2022/01/06 04:14:06;;;;;;;0.00;0.00;;;2.30;99.90;;;;;;5042258;28;20052;-87
2022/01/06 04:16:35;;;;;;;0.00;0.00;;;1.90;99.90;;;;;;5041925;28;20064;-87
2022/01/06 04:19:02;;;;;;;0.00;0.00;;;1.90;99.90;;;;;;5042676;28;20049;-86
2022/01/06 04:21:28;;;;;;;0.00;0.00;;;1.90;99.90;;;;;;5042600;28;20084;-86
2022/01/06 04:23:54;;;;;;;0.00;0.00;;;1.80;99.90;;;;;;5059901;28;20133;-87
2022/01/06 04:26:19;;;;;;;0.00;0.00;;;1.80;99.90;;;;;;5042640;28;20063;-87
2022/01/06 04:28:45;;;;;;;0.00;0.00;;;1.80;99.90;;;;;;5042523;28;20044;-87
2022/01/06 04:31:11;;;;;;;0.00;0.00;;;1.70;99.90;;;;;;5059123;28;20040;-87
2022/01/06 04:33:37;;;;;;;0.00;0.00;;;1.70;99.90;;;;;;5058744;28;20040;-87
2022/01/06 04:36:04;;;;;;;0.00;0.00;;;1.60;99.90;;;;;;5042647;28;20048;-87
2022/01/06 04:38:31;;;;;;;0.00;0.00;;;1.60;99.90;;;;;;5060882;28;20052;-87
2022/01/06 04:40:57;;;;;;;0.00;0.00;;;1.60;99.90;;;;;;5044034;28;20135;-87
2022/01/06 04:43:23;;;;;;;0.00;0.00;;;1.50;99.90;;;;;;5044172;28;20064;-87
2022/01/06 04:45:49;;;;;;;0.00;0.00;;;1.50;99.90;;;;;;5060640;28;20048;-87
2022/01/06 04:48:15;;;;;;;0.47;0.32;;;1.40;99.90;;;;;;5058573;28;20140;-87
2022/01/06 04:50:41;;;;;;;0.00;0.00;;;1.40;99.90;;;;;;5042216;28;20135;-87
2022/01/06 04:53:07;;;;;;;0.00;0.00;;;1.40;99.90;;;;;;5058544;28;20466;-87
2022/01/06 04:55:33;;;;;;;0.00;0.00;;;1.30;99.90;;;;;;5041921;28;20056;-87
2022/01/06 04:57:59;;;;;;;0.00;0.00;;;1.50;99.90;;;;;;5041829;28;20046;-87
2022/01/06 05:00:24;;;;;;;0.00;0.00;;;1.30;99.90;;;;;;5041889;28;20102;-87
2022/01/06 05:02:50;;;;;;;0.00;0.00;;;1.20;99.90;;;;;;5042456;28;20090;-87
2022/01/06 05:05:16;;;;;;;0.00;0.00;;;1.20;99.90;;;;;;5043549;28;20110;-87
2022/01/06 05:07:42;;;;;;;0.00;0.00;;;1.20;99.90;;;;;;5043347;28;20080;-88
2022/01/06 05:10:09;;;;;;;0.00;0.00;;;1.20;99.90;;;;;;5060083;28;20490;-87
2022/01/06 05:12:53;;;;;;;0.00;0.00;;;1.20;99.90;;;;;;5043378;28;20040;-88
2022/01/06 05:15:19;;;;;;;0.10;0.10;;;1.10;99.90;;;;;;5060165;28;20053;-88
2022/01/06 05:17:45;;;;;;;0.00;0.00;;;1.20;99.90;;;;;;5043738;28;20059;-87
2022/01/06 05:20:11;;;;;;;0.00;0.00;;;1.40;99.90;;;;;;5041381;28;20062;-87
2022/01/06 05:22:43;;;;;;;0.00;0.00;;;1.20;99.90;;;;;;5042720;28;20094;-87
2022/01/06 05:25:09;;;;;;;0.80;0.40;;;1.10;99.90;;;;;;5042329;28;20045;-87
2022/01/06 05:27:35;;;;;;;0.00;0.00;;;1.10;99.90;;;;;;5041193;28;20051;-87
2022/01/06 05:30:01;;;;;;;0.00;0.00;;;1.00;99.90;;;;;;5042902;28;20048;-87
2022/01/06 05:32:26;;;;;;;0.00;0.00;;;1.00;99.90;;;;;;5042645;28;20102;-88
2022/01/06 05:34:52;;;;;;;0.00;0.00;;;1.00;99.90;;;;;;5059513;28;20039;-87
2022/01/06 05:37:18;;;;;;;0.00;0.00;;;0.90;99.90;;;;;;5042403;28;20044;-88
2022/01/06 05:39:43;;;;;;;6.60;0.25;;;0.90;99.90;;;;;;5057862;28;20384;-87
2022/01/06 05:42:13;;;;;;;0.00;0.00;;;0.90;99.90;;;;;;5041209;28;20492;-88
2022/01/06 05:44:42;;;;;;;0.00;0.00;;;1.00;99.90;;;;;;5057676;28;20392;-88
2022/01/06 05:47:08;;;;;;;0.00;0.00;;;0.90;99.90;;;;;;5042149;28;20101;-88
2022/01/06 05:49:34;;;;;;;0.00;0.00;;;0.90;99.90;;;;;;5042974;28;20045;-88
2022/01/06 05:52:00;;;;;;;0.00;0.00;;;0.90;99.90;;;;;;5042586;28;20056;-88
2022/01/06 05:54:26;;;;;;;0.00;0.00;;;0.90;99.90;;;;;;5058635;28;20045;-88
2022/01/06 05:56:52;;;;;;;0.00;0.00;;;1.60;99.90;;;;;;5043088;28;20151;-89
2022/01/06 05:59:18;;;;;;;0.00;0.00;;;1.00;99.90;;;;;;5042003;28;20123;-89
2022/01/06 06:01:46;;;;;;;0.05;0.05;;;0.70;99.90;;;;;;5043336;28;20080;-88
2022/01/06 06:04:12;;;;;;;0.00;0.00;;;0.70;99.90;;;;;;5040928;28;20044;-89
2022/01/06 06:06:38;;;;;;;0.00;0.00;;;0.80;99.90;;;;;;5040686;28;20492;-89
2022/01/06 06:09:03;;;;;;;0.00;0.00;;;0.70;99.90;;;;;;5040697;28;20045;-89
2022/01/06 06:11:29;;;;;;;0.00;0.00;;;0.70;99.90;;;;;;5057288;28;20056;-89
2022/01/06 06:13:55;;;;;;;0.00;0.00;;;0.60;99.90;;;;;;5042241;28;20041;-89
2022/01/06 06:16:20;;;;;;;0.00;0.00;;;0.60;99.90;;;;;;5042134;28;20114;-89
2022/01/06 06:18:46;;;;;;;0.00;0.00;;;0.60;99.90;;;;;;5042049;28;20045;-89
2022/01/06 06:21:12;;;;;;;0.00;0.00;;;0.60;99.90;;;;;;5042438;28;20511;-89
2022/01/06 06:23:37;;;;;;;0.00;0.00;;;0.50;99.90;;;;;;5041920;28;20093;-89
2022/01/06 06:26:03;;;;;;;0.00;0.00;;;0.60;99.90;;;;;;5041206;28;20067;-89
2022/01/06 06:28:29;;;;;;;0.00;0.00;;;0.60;99.90;;;;;;5041980;28;20056;-87
2022/01/06 06:30:55;;;;;;;0.00;0.00;;;0.50;99.90;;;;;;5041201;28;20048;-88
2022/01/06 06:33:20;;;;;;;0.00;0.00;;;0.50;99.90;;;;;;5041452;28;20040;-88
2022/01/06 06:35:46;;;;;;;0.20;0.13;;;0.50;99.90;;;;;;5041823;28;20044;-88
2022/01/06 06:38:12;;;;;;;0.00;0.00;;;0.50;99.90;;;;;;5041005;28;20139;-88
2022/01/06 06:40:37;;;;;;;0.00;0.00;;;0.50;99.90;;;;;;5040245;28;20369;-88
2022/01/06 06:43:03;;;;;;;0.00;0.00;;;0.70;99.90;;;;;;5039934;28;20056;-88
2022/01/06 06:45:29;;;;;;;0.00;0.00;;;0.60;99.90;;;;;;5041617;28;20041;-88
2022/01/06 06:47:54;;;;;;;0.00;0.00;;;0.50;99.90;;;;;;5041401;28;20446;-88
2022/01/06 06:50:21;;;;;;;0.00;0.00;;;0.50;99.90;;;;;;5041479;28;20460;-88
2022/01/06 06:52:47;;;;;;;0.00;0.00;;;0.50;99.90;;;;;;5041223;28;20110;-88
2022/01/06 06:55:14;;;;;;;0.00;0.00;;;0.60;99.90;;;;;;5041071;28;20526;-88
2022/01/06 06:57:40;;;;;;;18.00;0.20;;;0.30;99.90;;;;;;5041652;28;20479;-88
2022/01/06 07:00:08;;;;;;;0.00;0.00;;;0.50;99.90;;;;;;5040252;28;20032;-88
2022/01/06 07:02:34;;;;;;;0.00;0.00;;;0.50;99.90;;;;;;5057342;28;20037;-89
2022/01/06 07:05:00;;;;;;;0.00;0.00;;;0.50;99.90;;;;;;5057893;28;20139;-88
2022/01/06 07:07:26;;;;;;;3.47;0.80;;;0.80;99.90;;;;;;5040795;28;20133;-89
2022/01/06 07:09:52;;;;;;;0.00;0.00;;;0.60;99.90;;;;;;5057455;28;20056;-88
2022/01/06 07:12:18;;;;;;;0.00;0.00;;;0.50;99.90;;;;;;5042427;28;20048;-89
2022/01/06 07:14:44;;;;;;;0.08;0.08;;;0.60;99.90;;;;;;5040662;28;20056;-89
2022/01/06 07:17:10;;;;;;;0.00;0.00;;;0.50;99.90;;;;;;5041575;28;20052;-89
2022/01/06 07:19:38;;;;;;;0.00;0.00;;;0.50;99.90;;;;;;5041783;28;20049;-89
2022/01/06 07:22:06;;;;;;;0.00;0.00;;;0.50;99.90;;;;;;5058873;28;20535;-90
2022/01/06 07:24:32;;;;;;;3.20;1.75;;;0.50;99.90;;;;;;5041306;28;20041;-89
2022/01/06 07:27:00;;;;;;;0.00;0.00;;;0.40;99.90;;;;;;5041216;28;20048;-89
2022/01/06 07:29:28;;;;;;;0.00;0.00;;;0.70;99.90;;;;;;5042150;28;20048;-88
2022/01/06 07:31:54;;;;;;;0.47;0.38;;;0.50;99.90;;;;;;5041042;28;20053;-87
2022/01/06 07:34:20;;;;;;;0.00;0.00;;;0.50;99.90;;;;;;5039114;28;20056;-87
2022/01/06 07:36:46;;;;;;;0.00;0.00;;;0.60;99.90;;;;;;5039619;28;20056;-88
2022/01/06 07:39:11;;;;;;;0.00;0.00;;;0.50;99.90;;;;;;5040218;28;20186;-89
2022/01/06 07:41:37;;;;;;;0.00;0.00;;;0.50;99.90;;;;;;5041213;28;20079;-89
2022/01/06 07:44:09;;;;;;;0.00;0.00;;;1.50;99.90;;;;;;5041470;28;20068;-90
2022/01/06 07:46:40;;;;;;;0.20;0.20;;;0.50;99.90;;;;;;5045766;28;20051;-90
2022/01/06 07:49:14;;;;;;;0.75;0.30;;;0.50;99.90;;;;;;5045303;28;20559;-90
2022/01/06 07:51:43;;;;;;;0.00;0.00;;;0.50;99.90;;;;;;5044926;28;20059;-90
2022/01/06 07:54:10;;;;;;;0.00;0.00;;;0.50;99.90;;;;;;5043913;28;20048;-89
2022/01/06 07:56:39;;;;;;;0.00;0.00;;;0.80;99.90;;;;;;5044312;28;20515;-89
2022/01/06 07:59:12;;;;;;;0.00;0.00;;;0.60;99.90;;;;;;5045301;28;20102;-89
2022/01/06 08:01:44;;;;;;;0.00;0.00;;;0.80;99.90;;;;;;5045273;28;20066;-90
2022/01/06 08:04:09;;;;;;;0.00;0.00;;;0.60;99.90;;;;;;5045806;28;20045;-90
2022/01/06 08:06:35;;;;;;;0.00;0.00;;;0.70;99.90;;;;;;5045081;28;20127;-90
2022/01/06 08:09:01;;;;;;;0.00;0.00;;;0.60;99.90;;;;;;5042897;28;20500;-90
2022/01/06 08:11:27;;;;;;;0.00;0.00;;;0.70;99.90;;;;;;5043171;28;20102;-90
2022/01/06 08:13:56;;;;;;;0.00;0.00;;;0.90;99.90;;;;;;5043031;28;20040;-90
2022/01/06 08:16:25;;;;;;;0.00;0.00;;;0.80;99.90;;;;;;5059170;28;20139;-90
2022/01/06 08:18:53;;;;;;;0.00;0.00;;;0.80;99.90;;;;;;5042910;28;20510;-90
2022/01/06 08:21:25;;;;;;;0.00;0.00;;;0.90;99.90;;;;;;5042987;28;20056;-90
2022/01/06 08:23:53;;;;;;;0.00;0.00;;;0.90;99.90;;;;;;5042767;28;20041;-90
2022/01/06 08:26:22;;;;;;;0.08;0.08;;;1.10;99.90;;;;;;5042885;28;20052;-90
2022/01/06 08:28:48;;;;;;;0.00;0.00;;;1.00;99.90;;;;;;5042896;28;20044;-90
2022/01/06 08:31:19;;;;;;;0.00;0.00;;;1.10;99.90;;;;;;5044179;28;20499;-90
2022/01/06 08:33:50;;;;;;;0.00;0.00;;;1.20;99.90;;;;;;5042836;28;20060;-90
2022/01/06 08:36:22;;;;;;;0.00;0.00;;;1.20;99.90;;;;;;5043519;28;20048;-90
2022/01/06 08:38:48;;;;;;;2.63;0.73;;;1.30;99.90;;;;;;5042843;28;20049;-90
2022/01/06 08:41:21;;;;;;;1.08;0.65;;;1.30;99.90;;;;;;5042663;28;20503;-90
2022/01/06 08:43:49;;;;;;;0.00;0.00;;;1.40;99.90;;;;;;5042665;28;20057;-90
2022/01/06 08:46:15;;;;;;;0.00;0.00;;;1.40;99.90;;;;;;5042198;28;20109;-89
2022/01/06 08:48:47;;;;;;;0.00;0.00;;;1.40;99.90;;;;;;5042119;28;20044;-90
2022/01/06 08:51:29;;;;;;;0.00;0.00;;;1.40;99.90;;;;;;5042427;28;20044;-90
2022/01/06 08:53:54;;;;;;;0.00;0.00;;;1.50;99.90;;;;;;5042812;28;20044;-89
2022/01/06 08:56:20;;;;;;;0.00;0.00;;;1.50;99.90;;;;;;5043935;28;20488;-90
2022/01/06 08:58:46;;;;;;;0.00;0.00;;;1.80;99.90;;;;;;5042744;28;20049;-90
2022/01/06 09:01:15;;;;;;;0.00;0.00;;;2.30;99.90;;;;;;5043908;28;20040;-90
2022/01/06 09:03:41;;;;;;;0.00;0.00;;;2.80;99.90;;;;;;5042180;28;20551;-89
2022/01/06 09:06:09;;;;;;;0.00;0.00;;;3.60;99.90;;;;;;5042034;28;20135;-89
2022/01/06 09:08:44;;;;;;;0.10;0.10;;;4.00;99.90;;;;;;5058634;28;20055;-89
2022/01/06 09:11:13;;;;;;;0.75;0.73;;;4.40;99.90;;;;;;5058263;28;20052;-89
2022/01/06 09:13:39;;;;;;;4.85;0.57;;;5.00;99.90;;;;;;5041521;28;20049;-89
2022/01/06 09:16:08;;;;;;;0.03;0.00;;;5.50;99.90;;;;;;5041216;28;20109;-89
2022/01/06 09:18:35;;;;;;;0.00;0.00;;;5.80;99.90;;;;;;5041597;28;20109;-88
2022/01/06 09:21:01;;;;;;;0.00;0.00;;;6.10;99.90;;;;;;5041599;28;20084;-88
2022/01/06 09:23:27;;;;;;;0.00;0.00;;;6.40;99.90;;;;;;5042969;28;20051;-88
2022/01/06 09:25:55;;;;;;;0.63;0.10;;;6.60;99.90;;;;;;5041756;28;20052;-88
2022/01/06 09:28:21;;;;;;;0.00;0.00;;;6.90;99.90;;;;;;5058028;28;20094;-88
2022/01/06 09:30:47;;;;;;;0.20;0.20;;;7.90;99.90;;;;;;5040904;28;20091;-88
2022/01/06 09:33:13;;;;;;;0.00;0.00;;;9.30;99.90;;;;;;5041058;28;20036;-88
2022/01/06 09:35:39;;;;;;;3.40;0.90;;;9.10;99.90;;;;;;5040901;28;20048;-88
2022/01/06 09:38:05;;;;;;;0.10;0.10;;;8.20;99.90;;;;;;5040740;28;20504;-87
2022/01/06 09:40:31;;;;;;;0.00;0.00;;;8.60;99.90;;;;;;5041560;28;20052;-87
2022/01/06 09:42:56;;;;;;;0.52;0.10;;;8.80;99.90;;;;;;5059017;28;20445;-88
2022/01/06 09:45:27;;;;;;;0.00;0.00;;;9.40;99.90;;;;;;5042916;28;20361;-88
2022/01/06 09:47:54;;;;;;;0.00;0.00;;;9.40;99.90;;;;;;5042999;28;20044;-88
2022/01/06 09:50:20;;;;;;;0.20;0.20;;;9.70;99.90;;;;;;5059165;28;20044;-88
2022/01/06 09:52:47;;;;;;;0.00;0.00;;;9.60;99.90;;;;;;5041213;28;20545;-88
2022/01/06 09:55:15;;;;;;;0.00;0.00;;;9.60;99.90;;;;;;5041290;28;20107;-88
2022/01/06 09:57:54;;;;;;;3.75;0.77;;;9.90;99.90;;;;;;5042549;28;20040;-87
2022/01/06 10:00:20;;;;;;;0.00;0.00;;;9.90;99.90;;;;;;5042100;28;20049;-89
2022/01/06 10:02:53;;;;;;;0.00;0.00;;;10.20;99.30;;;;;;5057176;28;20048;-89
2022/01/06 10:05:19;;;;;;;0.22;0.22;;;10.30;98.70;;;;;;5040948;28;20476;-89
2022/01/06 10:07:45;;;;;;;0.00;0.00;;;10.40;97.30;;;;;;5040814;28;20059;-89
2022/01/06 10:10:12;;;;;;;1.75;0.40;;;10.70;97.00;;;;;;5040584;28;20541;-89
2022/01/06 10:12:40;;;;;;;0.00;0.00;;;10.60;98.60;;;;;;5040469;28;20045;-89
2022/01/06 10:15:17;;;;;;;0.00;0.00;;;10.80;97.40;;;;;;5056901;28;20052;-89
2022/01/06 10:17:44;;;;;;;0.43;0.28;;;10.40;97.40;;;;;;5041564;28;20139;-89
2022/01/06 10:20:18;;;;;;;0.00;0.00;;;9.90;98.70;;;;;;5042228;28;20055;-89
2022/01/06 10:22:46;;;;;;;0.00;0.00;;;9.80;99.90;;;;;;5042668;28;20060;-89
2022/01/06 10:25:17;;;;;;;0.38;0.20;;;9.80;99.90;;;;;;5042348;28;20067;-89
2022/01/06 10:27:45;;;;;;;0.00;0.00;;;10.00;99.90;;;;;;5058534;28;20041;-90
2022/01/06 10:30:12;;;;;;;0.00;0.00;;;9.90;99.90;;;;;;5042107;28;20079;-89
2022/01/06 10:32:39;;;;;;;0.10;0.10;;;10.20;99.90;;;;;;5040310;28;20048;-89
2022/01/06 10:35:06;;;;;;;0.35;0.00;;;10.60;98.40;;;;;;5041207;28;20102;-88
2022/01/06 10:37:41;;;;;;;0.57;0.57;;;10.90;97.90;;;;;;5041908;28;20045;-89
2022/01/06 10:40:16;;;;;;;0.05;0.03;;;11.30;96.20;;;;;;5042146;28;20071;-89
2022/01/06 10:42:47;;;;;;;0.20;0.08;;;11.10;95.70;;;;;;5041126;28;20071;-89
2022/01/06 10:45:18;;;;;;;0.00;0.00;;;11.80;95.60;;;;;;5039992;28;20044;-89
2022/01/06 10:47:46;;;;;;;2.38;0.13;;;11.70;94.70;;;;;;5056842;28;20509;-88
2022/01/06 10:50:24;;;;;;;0.00;0.00;;;11.50;93.80;;;;;;5039981;28;20040;-88
2022/01/06 10:52:53;;;;;;;3.83;1.02;;;11.10;94.60;;;;;;5039693;28;20102;-88
2022/01/06 10:55:23;;;;;;;0.28;0.22;;;10.90;96.50;;;;;;5041677;28;20048;-89
2022/01/06 10:58:12;;;;;;;0.10;0.10;;;11.10;96.80;;;;;;5058178;28;20044;-88
2022/01/06 11:00:38;;;;;;;0.03;0.00;;;11.30;95.20;;;;;;5041301;28;20083;-89
2022/01/06 11:03:10;;;;;;;1.55;0.00;;;11.60;94.30;;;;;;5041280;28;20056;-88
2022/01/06 11:05:38;;;;;;;0.20;0.20;;;11.90;92.40;;;;;;5041160;28;20139;-88
2022/01/06 11:08:05;;;;;;;0.00;0.00;;;12.20;92.10;;;;;;5058423;28;20052;-89
2022/01/06 11:10:35;;;;;;;0.00;0.00;;;12.40;90.20;;;;;;5041200;28;20055;-89
2022/01/06 11:13:01;;;;;;;2.05;0.93;;;12.70;88.90;;;;;;5057697;28;20369;-89
2022/01/06 11:15:27;;;;;;;0.00;0.00;;;12.90;89.90;;;;;;5040789;28;20139;-89
2022/01/06 11:17:53;;;;;;;0.00;0.00;;;12.80;85.50;;;;;;5041342;28;20080;-89
2022/01/06 11:20:26;;;;;;;1.13;0.55;;;12.90;83.60;;;;;;5039774;28;20048;-89
2022/01/06 11:22:54;;;;;;;0.00;0.00;;;12.90;84.30;;;;;;5056080;28;20063;-89
2022/01/06 11:25:34;;;;;;;0.00;0.00;;;12.90;83.30;;;;;;5039418;28;20067;-89
2022/01/06 11:28:11;;;;;;;0.00;0.00;;;13.00;84.00;;;;;;5040451;28;20071;-89
2022/01/06 11:30:49;;;;;;;0.00;0.00;;;13.10;81.80;;;;;;5058622;28;20048;-89
2022/01/06 11:33:15;;;;;;;0.00;0.00;;;13.20;83.30;;;;;;5041197;28;20419;-89
2022/01/06 11:35:53;;;;;;;0.00;0.00;;;13.20;82.90;;;;;;5041179;28;20045;-89
2022/01/06 11:38:20;;;;;;;0.17;0.10;;;13.20;82.20;;;;;;5040279;28;20044;-89
2022/01/06 11:40:50;;;;;;;2.75;0.20;;;13.50;81.10;;;;;;5040694;28;20052;-89
2022/01/06 11:43:17;;;;;;;0.00;0.00;;;13.30;80.80;;;;;;5040939;28;20044;-88
2022/01/06 11:45:43;;;;;;;0.00;0.00;;;13.40;80.20;;;;;;5056445;28;20048;-89
2022/01/06 11:48:16;;;;;;;0.00;0.00;;;13.40;79.00;;;;;;5040438;28;20048;-88
2022/01/06 11:50:46;;;;;;;0.10;0.10;;;13.50;79.50;;;;;;5040466;28;20509;-88
2022/01/06 11:53:14;;;;;;;0.08;0.00;;;13.50;77.50;;;;;;5040218;28;20048;-89
2022/01/06 11:55:43;;;;;;;0.65;0.00;;;13.30;77.30;;;;;;5057578;28;20048;-89
2022/01/06 11:58:17;;;;;;;0.00;0.00;;;13.40;77.80;;;;;;5057244;28;20503;-89
2022/01/06 12:00:59;;;;;;;;;;;13.40;77.20;;;;;;5041072;28;20048;-89
2022/01/06 12:03:40;;;;;;;0.00;0.00;;;13.40;78.80;;;;;;5057423;28;19942;-89
2022/01/06 12:06:08;;;;;;;0.00;0.00;;;13.30;80.30;;;;;;5057799;28;20067;-89
2022/01/06 12:08:43;;;;;;;0.00;0.00;;;14.00;79.60;;;;;;5040414;28;20053;-89
2022/01/06 12:11:37;;;;;;;0.00;0.00;;;13.30;80.20;;;;;;5040481;28;20396;-89
2022/01/06 12:14:03;;;;;;;0.00;0.00;;;13.00;82.40;;;;;;5052640;28;20488;-89
2022/01/06 12:16:34;;;;;;;0.32;0.32;;;13.00;81.70;;;;;;5038789;28;20049;-89
2022/01/06 12:19:13;;;;;;;0.45;0.00;;;13.30;82.50;;;;;;5038760;28;20136;-89
2022/01/06 12:21:39;;;;;;;0.00;0.00;;;12.90;82.20;;;;;;5055712;28;20118;-89
2022/01/06 12:24:07;;;;;;;0.20;0.20;;;12.80;82.60;;;;;;5039001;28;20041;-89
2022/01/06 12:26:34;;;;;;;0.00;0.00;;;12.60;83.20;;;;;;5038991;28;20083;-89
2022/01/06 12:29:00;;;;;;;0.00;0.00;;;12.40;83.40;;;;;;5039346;28;20052;-89
2022/01/06 12:31:28;;;;;;;0.00;0.00;;;12.50;84.70;;;;;;5056989;28;20079;-89
2022/01/06 12:33:59;;;;;;;0.00;0.00;;;12.30;86.60;;;;;;5043230;28;20512;-90
2022/01/06 12:36:27;;;;;;;0.00;0.00;;;12.10;87.60;;;;;;5043080;28;20047;-89
2022/01/06 12:38:53;;;;;;;0.00;0.00;;;11.80;90.10;;;;;;5042688;28;20106;-90
2022/01/06 12:41:30;;;;;;;0.25;0.05;;;11.60;91.50;;;;;;5042718;28;20131;-89
2022/01/06 12:43:56;;;;;;;0.00;0.00;;;11.50;93.00;;;;;;5042704;28;20174;-89
2022/01/06 12:46:29;;;;;;;0.00;0.00;;;11.40;93.00;;;;;;5042434;28;20205;-90
2022/01/06 12:48:55;;;;;;;0.10;0.10;;;11.40;93.90;;;;;;5042452;28;20052;-90
2022/01/06 12:51:26;;;;;;;0.00;0.00;;;11.20;93.60;;;;;;5059017;28;20041;-90
2022/01/06 12:54:11;;;;;;;0.00;0.00;;;11.20;94.70;;;;;;5042137;28;20059;-90
2022/01/06 12:56:38;;;;;;;0.00;0.00;;;10.80;94.60;;;;;;5042724;28;20083;-90
2022/01/06 12:59:12;;;;;;;0.00;0.00;;;10.70;95.30;;;;;;5042115;28;20051;-89
2022/01/06 13:01:40;;;;;;;0.00;0.00;;;10.40;96.40;;;;;;5058686;28;20051;-90
2022/01/06 13:04:08;;;;;;;0.00;0.00;;;10.30;98.40;;;;;;5058765;28;20052;-90
2022/01/06 13:06:35;;;;;;;0.00;0.00;;;10.20;98.50;;;;;;5058927;28;20054;-90
2022/01/06 13:09:18;;;;;;;0.47;0.28;;;10.20;99.80;;;;;;5042392;28;20139;-89